Pula, Croatia

1:37 AM CET on January 22, 2017 (GMT +0100)
Pula | | Change Station

Elev 207 ft 44.90 °N, 13.92 °E | Updated 7 minutes ago

Clear
Clear
32 °F
Feels Like 26 °F
N
6
Wind Variable Wind from NE

Today
High -- | Low -- °F
--% Chance of Precip.
Yesterday
High -- | Low -- °F
Precip. -- in
Pressure 30.36 in
Visibility -9999.0 miles
Clouds
Windchill 26 °F
Dew Point 23 °F
Humidity 69%
Rainfall 0.00 in
Snow Depth Not available.
7:33 AM 4:58 PM
Waning Crescent, 31% visible
METAR LDPL 220030Z 05005KT CAVOK M00/M05 Q1028
Pressure 30.36 in
Visibility -9999.0 miles
Clouds
Windchill 26 °F
Dew Point 23 °F
Humidity 69%
Rainfall 0.00 in
Snow Depth Not available.
7:33 AM 4:58 PM
Waning Crescent, 31% visible
METAR LDPL 220030Z 05005KT CAVOK M00/M05 Q1028

Get Your Daily Forecast Email!

Thanks for signing up!

Be on the lookout for a verification email in your inbox.

You'll start receiving the daily forecast at 8 AM.

×

10-Day Weather Forecast

No radar image for this location.
×

Almanac

Astronomy

Jan. 22, 2017 Rise Set
Actual Time
Civil Twilight
Nautical Twilight
Astronomical Twilight
Moon
Length of Visible Light
Length of Day
Tomorrow will be .
, % of the Moon is Illuminated

Today's Extremes

Country Highs Country Lows

Community

WunderPhotos

Upload Photos

1,962,540 photos uploaded!

WunderBlog® & News

Nearby

Air Quality

  Air Quality AQ Index Pollutant
Not available.

Snow Depth

Station Depth Elevation

Earthquake Activity

City Distance Mag. Time & Date
Minimum magnitude displayed is 2.5.

Coastal Water Temperatures

Place Temperature

Stations

Nearby Weather Stations

Station Location Temp. Windchill Dew Point Humidity Wind Precip. Elev Updated Type